createdAt,value
2018-07-25T00:00:40.099Z,0.00
2018-07-25T00:01:39.816Z,0.00
2018-07-25T00:02:39.857Z,0.00
2018-07-25T00:03:39.814Z,0.00
2018-07-25T00:04:39.852Z,0.00
2018-07-25T00:05:39.888Z,0.00
2018-07-25T00:06:39.870Z,0.00
2018-07-25T00:07:39.897Z,0.00
2018-07-25T00:08:39.912Z,0.00
2018-07-25T00:09:39.898Z,0.00
2018-07-25T00:10:39.934Z,0.00
2018-07-25T00:11:39.881Z,0.00
2018-07-25T00:12:39.954Z,0.00
2018-07-25T00:13:39.936Z,0.00
2018-07-25T00:14:39.946Z,0.00
2018-07-25T00:15:39.863Z,0.00
2018-07-25T00:16:39.989Z,0.00
2018-07-25T00:17:40.002Z,0.00
2018-07-25T00:18:39.908Z,0.00
2018-07-25T00:19:39.914Z,0.00
2018-07-25T00:20:39.982Z,0.00
2018-07-25T00:21:39.992Z,0.00
2018-07-25T00:22:39.955Z,0.00
2018-07-25T00:23:39.966Z,0.00
2018-07-25T00:24:39.922Z,0.00
2018-07-25T00:25:39.941Z,0.00
2018-07-25T00:26:40.006Z,0.00
2018-07-25T00:27:40.017Z,0.00
2018-07-25T00:28:39.977Z,0.00
2018-07-25T00:29:39.957Z,0.00
2018-07-25T00:30:39.940Z,0.00
2018-07-25T00:31:40.010Z,0.00
2018-07-25T00:32:39.991Z,0.00
2018-07-25T00:33:40.003Z,0.00
2018-07-25T00:34:40.076Z,0.00
2018-07-25T00:35:40.027Z,0.00
2018-07-25T00:36:40.014Z,0.00
2018-07-25T00:37:39.996Z,0.00
2018-07-25T00:38:40.049Z,0.00
2018-07-25T00:39:40.017Z,0.00
2018-07-25T00:40:40.057Z,0.00
2018-07-25T00:41:39.993Z,0.00
2018-07-25T00:42:40.011Z,0.00
2018-07-25T00:43:40.010Z,0.00
2018-07-25T00:44:40.015Z,0.00
2018-07-25T00:45:40.015Z,0.00
2018-07-25T00:46:40.031Z,0.00
2018-07-25T00:47:40.032Z,0.00
2018-07-25T00:48:40.038Z,0.00
2018-07-25T00:49:40.039Z,0.00
2018-07-25T00:50:40.045Z,0.00
2018-07-25T00:51:40.053Z,0.00
2018-07-25T00:52:40.057Z,0.00
2018-07-25T00:53:40.063Z,0.00
2018-07-25T00:54:40.071Z,0.00
2018-07-25T00:55:40.074Z,0.00
2018-07-25T00:56:40.084Z,0.00
2018-07-25T00:57:40.083Z,0.00
2018-07-25T00:58:40.092Z,0.00
2018-07-25T00:59:40.098Z,0.00
2018-07-25T01:00:40.102Z,0.00
2018-07-25T01:01:40.109Z,0.00
2018-07-25T01:02:40.106Z,0.00
2018-07-25T01:03:40.117Z,0.00
2018-07-25T01:04:40.118Z,0.00
2018-07-25T01:05:40.134Z,0.00
2018-07-25T01:06:40.139Z,0.00
2018-07-25T01:07:40.143Z,0.00
2018-07-25T01:08:40.142Z,0.00
2018-07-25T01:09:40.150Z,0.00
2018-07-25T01:10:40.155Z,0.00
2018-07-25T01:11:40.265Z,0.00
2018-07-25T01:12:40.168Z,0.00
2018-07-25T01:13:40.171Z,0.00
2018-07-25T01:14:40.185Z,0.00
2018-07-25T01:15:40.180Z,0.00
2018-07-25T01:16:40.191Z,0.00
2018-07-25T01:17:40.190Z,0.00
2018-07-25T01:18:40.197Z,0.00
2018-07-25T01:19:40.204Z,0.00
2018-07-25T01:20:40.209Z,0.00
2018-07-25T01:21:40.225Z,0.00
2018-07-25T01:22:40.225Z,0.00
2018-07-25T01:23:40.226Z,0.00
2018-07-25T01:24:40.235Z,0.00
2018-07-25T01:25:40.234Z,0.00
2018-07-25T01:26:40.238Z,0.00
2018-07-25T01:27:40.247Z,0.00
2018-07-25T01:28:40.246Z,0.00
2018-07-25T01:29:40.256Z,0.00
2018-07-25T01:30:40.256Z,0.00
2018-07-25T01:31:40.265Z,0.00
2018-07-25T01:32:40.274Z,0.00
2018-07-25T01:33:40.297Z,0.00
2018-07-25T01:34:40.288Z,0.00
2018-07-25T01:35:40.289Z,0.00
2018-07-25T01:36:40.291Z,0.00
2018-07-25T01:37:40.300Z,0.00
2018-07-25T01:38:40.296Z,0.00
2018-07-25T01:39:40.304Z,0.00
2018-07-25T01:40:40.310Z,0.00
2018-07-25T01:41:40.317Z,0.00
2018-07-25T01:42:40.319Z,0.00
2018-07-25T01:43:40.326Z,0.00
2018-07-25T01:44:40.326Z,0.00
2018-07-25T01:45:40.337Z,0.00
2018-07-25T01:46:40.343Z,0.00
2018-07-25T01:47:40.369Z,0.00
2018-07-25T01:48:40.352Z,0.00
2018-07-25T01:49:40.359Z,0.00
2018-07-25T01:50:40.364Z,0.00
2018-07-25T01:51:40.368Z,0.00
2018-07-25T01:52:40.376Z,0.00
2018-07-25T01:53:40.376Z,0.00
2018-07-25T01:54:40.383Z,0.00
2018-07-25T01:55:40.390Z,0.00
2018-07-25T01:56:40.388Z,0.00
2018-07-25T01:57:40.400Z,0.00
2018-07-25T01:58:40.401Z,0.00
2018-07-25T01:59:40.405Z,0.00
2018-07-25T02:00:40.410Z,0.00
2018-07-25T02:01:40.416Z,0.00
2018-07-25T02:02:40.424Z,0.00
2018-07-25T02:03:40.427Z,0.00
2018-07-25T02:04:40.434Z,0.00
2018-07-25T02:05:40.433Z,0.00
2018-07-25T02:06:40.441Z,0.00
2018-07-25T02:07:40.443Z,0.00
2018-07-25T02:08:40.457Z,0.00
2018-07-25T02:09:40.460Z,0.00
2018-07-25T02:10:40.460Z,0.00
2018-07-25T02:13:01.494Z,0.00
2018-07-25T02:14:01.492Z,0.00
2018-07-25T02:15:01.497Z,0.00
2018-07-25T02:16:01.505Z,0.00
2018-07-25T02:17:01.506Z,0.00
2018-07-25T02:18:01.513Z,0.00
2018-07-25T02:19:01.517Z,0.00
2018-07-25T02:20:01.525Z,0.00
2018-07-25T02:21:01.524Z,0.00
2018-07-25T02:22:01.532Z,0.00
2018-07-25T02:23:01.537Z,0.00
2018-07-25T02:24:01.543Z,0.00
2018-07-25T02:25:01.545Z,0.00
2018-07-25T02:26:11.063Z,0.00
2018-07-25T02:27:54.954Z,0.00
2018-07-25T02:28:54.948Z,0.00
2018-07-25T02:29:54.947Z,0.00
2018-07-25T02:30:54.956Z,0.00
2018-07-25T02:31:54.965Z,0.00
2018-07-25T02:32:54.970Z,0.00
2018-07-25T02:33:54.974Z,0.00
2018-07-25T02:34:54.976Z,0.00
2018-07-25T02:35:54.987Z,0.00
2018-07-25T02:36:54.988Z,0.00
2018-07-25T02:37:54.995Z,0.00
2018-07-25T02:38:54.998Z,0.00
2018-07-25T02:39:54.996Z,0.00
2018-07-25T02:40:55.002Z,0.00
2018-07-25T02:41:55.009Z,0.00
2018-07-25T02:42:55.018Z,0.00
2018-07-25T02:43:55.129Z,0.00
2018-07-25T02:44:55.021Z,0.00
2018-07-25T02:45:55.025Z,0.00
2018-07-25T02:46:55.034Z,0.00
2018-07-25T02:47:55.033Z,0.00
2018-07-25T02:48:55.047Z,0.00
2018-07-25T02:49:55.043Z,0.00
2018-07-25T02:50:55.051Z,0.00
2018-07-25T02:51:55.054Z,0.00
2018-07-25T02:52:55.064Z,0.00
2018-07-25T02:53:55.057Z,0.00
2018-07-25T02:54:55.072Z,0.00
2018-07-25T02:55:55.074Z,0.00
2018-07-25T02:56:55.100Z,0.00
2018-07-25T02:57:55.147Z,0.00
2018-07-25T03:17:08.771Z,0.00
2018-07-25T03:18:08.740Z,0.00
2018-07-25T03:19:08.741Z,0.00
2018-07-25T03:20:08.745Z,0.00
2018-07-25T03:21:08.735Z,0.00
2018-07-25T03:22:08.750Z,0.00
2018-07-25T03:23:08.748Z,0.00
2018-07-25T03:24:09.059Z,0.00
2018-07-25T03:25:08.747Z,0.00
2018-07-25T03:26:08.752Z,0.00
2018-07-25T03:27:08.756Z,0.00
2018-07-25T03:28:08.755Z,0.00
2018-07-25T03:29:08.766Z,0.00
2018-07-25T03:30:08.768Z,0.00
2018-07-25T03:31:08.792Z,0.00
2018-07-25T03:32:08.776Z,0.00
2018-07-25T03:33:08.779Z,0.00
2018-07-25T03:34:08.783Z,0.00
2018-07-25T03:35:08.782Z,0.00
2018-07-25T03:36:08.785Z,0.00
2018-07-25T03:37:08.790Z,0.00
2018-07-25T03:38:08.789Z,0.00
2018-07-25T03:39:08.795Z,0.00
2018-07-25T03:40:08.798Z,0.00
2018-07-25T03:41:08.800Z,0.00
2018-07-25T03:42:08.806Z,0.00
2018-07-25T03:43:09.108Z,0.00
2018-07-25T03:44:08.822Z,0.00
2018-07-25T03:45:08.815Z,0.00
2018-07-25T03:46:08.815Z,0.00
2018-07-25T03:47:08.827Z,0.00
2018-07-25T03:48:08.832Z,0.00
2018-07-25T03:49:08.855Z,0.00
2018-07-25T03:50:08.861Z,0.00
2018-07-25T03:51:08.841Z,0.00
2018-07-25T03:52:08.854Z,0.00
2018-07-25T03:53:08.930Z,0.00
2018-07-25T03:54:08.857Z,0.00
2018-07-25T03:55:08.870Z,0.00
2018-07-25T03:56:08.889Z,0.00
2018-07-25T03:57:08.882Z,0.00
2018-07-25T03:58:08.979Z,0.00
2018-07-25T03:59:08.866Z,0.00
2018-07-25T04:00:08.889Z,0.00
2018-07-25T04:01:08.914Z,0.00
2018-07-25T04:02:08.885Z,0.00
2018-07-25T04:03:08.886Z,0.00
2018-07-25T04:07:13.147Z,0.00
2018-07-25T04:08:13.179Z,0.00
2018-07-25T04:09:13.188Z,0.00
2018-07-25T04:10:13.140Z,0.00
2018-07-25T04:11:13.140Z,0.00
2018-07-25T04:12:13.150Z,0.00
2018-07-25T04:13:13.153Z,0.00
2018-07-25T04:14:13.160Z,0.00
2018-07-25T04:15:13.177Z,0.00
2018-07-25T04:16:13.164Z,0.00
2018-07-25T04:17:13.168Z,0.00
2018-07-25T04:18:22.680Z,0.00
2018-07-25T04:20:06.669Z,0.00
2018-07-25T04:21:15.283Z,0.00
2018-07-25T04:23:00.053Z,0.00
2018-07-25T04:24:00.053Z,0.00
2018-07-25T04:25:00.058Z,0.00
2018-07-25T04:26:00.061Z,0.00
2018-07-25T04:27:00.063Z,0.00
2018-07-25T04:28:00.071Z,5.63
2018-07-25T04:29:00.072Z,5.63
2018-07-25T04:30:00.078Z,5.63
2018-07-25T04:31:00.082Z,5.63
2018-07-25T04:32:00.084Z,5.63
2018-07-25T04:33:00.090Z,5.63
2018-07-25T04:34:00.132Z,5.63
2018-07-25T04:35:00.094Z,5.63
2018-07-25T04:36:00.099Z,5.63
2018-07-25T04:37:00.128Z,11.25
2018-07-25T04:38:00.124Z,11.25
2018-07-25T04:39:00.121Z,11.25
2018-07-25T04:40:00.121Z,11.25
2018-07-25T04:41:00.133Z,16.88
2018-07-25T04:42:00.127Z,16.88
2018-07-25T04:43:00.136Z,16.88
2018-07-25T04:44:00.147Z,22.50
2018-07-25T04:45:00.152Z,22.50
2018-07-25T04:46:00.188Z,22.50
2018-07-25T04:47:00.161Z,22.50
2018-07-25T04:48:00.173Z,22.50
2018-07-25T04:49:00.170Z,22.50
2018-07-25T04:50:00.214Z,16.88
2018-07-25T04:51:00.226Z,22.50
2018-07-25T04:52:00.199Z,22.50
2018-07-25T04:53:00.197Z,22.50
2018-07-25T04:54:00.213Z,22.50
2018-07-25T04:55:00.219Z,16.88
2018-07-25T04:56:00.281Z,16.88
2018-07-25T04:57:00.232Z,16.88
2018-07-25T04:58:00.238Z,16.88
2018-07-25T04:59:00.248Z,16.88
2018-07-25T05:00:00.268Z,16.88
2018-07-25T05:01:00.257Z,16.88
2018-07-25T05:02:00.270Z,16.88
2018-07-25T05:03:00.297Z,16.88
2018-07-25T05:04:00.288Z,16.88
2018-07-25T05:05:00.317Z,16.88
2018-07-25T05:06:00.299Z,16.88
2018-07-25T05:07:00.320Z,16.88
2018-07-25T05:08:00.316Z,16.88
2018-07-25T05:09:00.327Z,16.88
2018-07-25T05:10:00.334Z,16.88
2018-07-25T05:11:00.342Z,16.88
2018-07-25T05:12:00.351Z,22.50
2018-07-25T05:13:00.361Z,28.13
2018-07-25T05:14:00.367Z,39.38
2018-07-25T05:15:00.376Z,39.38
2018-07-25T05:16:00.388Z,28.13
2018-07-25T05:17:00.393Z,28.13
2018-07-25T05:18:00.463Z,28.13
2018-07-25T05:19:00.412Z,28.13
2018-07-25T05:20:00.417Z,45.00
2018-07-25T05:21:00.430Z,28.13
2018-07-25T05:22:00.439Z,39.38
2018-07-25T05:23:00.443Z,61.88
2018-07-25T05:24:00.454Z,78.75
2018-07-25T05:25:00.468Z,90.00
2018-07-25T05:26:00.474Z,95.63
2018-07-25T05:27:00.482Z,84.38
2018-07-25T05:28:00.496Z,95.63
2018-07-25T05:29:00.503Z,84.38
2018-07-25T05:30:00.516Z,95.63
2018-07-25T05:31:00.542Z,101.25
2018-07-25T05:32:00.537Z,101.25
2018-07-25T05:33:00.549Z,101.25
2018-07-25T05:34:00.611Z,106.88
2018-07-25T05:35:00.585Z,112.50
2018-07-25T05:36:00.595Z,112.50
2018-07-25T05:37:00.600Z,112.50
2018-07-25T05:38:00.619Z,118.13
2018-07-25T05:39:00.621Z,118.13
2018-07-25T05:40:00.639Z,129.38
2018-07-25T05:41:00.651Z,135.00
2018-07-25T05:42:00.816Z,135.00
2018-07-25T05:43:00.693Z,140.63
2018-07-25T05:44:00.715Z,146.25
2018-07-25T05:45:00.712Z,151.88
2018-07-25T05:46:00.754Z,151.88
2018-07-25T05:47:00.741Z,157.50
2018-07-25T05:48:00.755Z,157.50
2018-07-25T05:49:00.780Z,163.13
2018-07-25T05:50:00.804Z,163.13
2018-07-25T05:51:00.802Z,168.75
2018-07-25T05:52:00.827Z,168.75
2018-07-25T05:53:00.842Z,168.75
2018-07-25T05:54:00.862Z,168.75
2018-07-25T05:55:00.873Z,174.38
2018-07-25T05:56:00.889Z,174.38
2018-07-25T05:57:00.909Z,180.00
2018-07-25T05:58:00.925Z,185.63
2018-07-25T05:59:00.944Z,196.88
2018-07-25T06:00:00.975Z,196.88
2018-07-25T06:01:00.990Z,202.50
2018-07-25T06:02:01.018Z,208.13
2018-07-25T06:03:01.082Z,208.13
2018-07-25T06:04:01.039Z,208.13
2018-07-25T06:05:01.065Z,213.75
2018-07-25T06:06:01.106Z,219.38
2018-07-25T06:07:01.096Z,225.00
2018-07-25T06:08:01.124Z,225.00
2018-07-25T06:09:01.135Z,236.25
2018-07-25T06:10:01.165Z,236.25
2018-07-25T06:11:01.177Z,236.25
2018-07-25T06:12:01.195Z,208.13
2018-07-25T06:13:01.244Z,129.38
2018-07-25T06:14:01.235Z,56.25
2018-07-25T06:15:01.251Z,45.00
2018-07-25T06:16:01.276Z,33.75
2018-07-25T06:17:01.290Z,33.75
2018-07-25T06:18:01.303Z,33.75
2018-07-25T06:19:01.337Z,33.75
2018-07-25T06:20:01.345Z,28.13
2018-07-25T06:21:01.370Z,28.13
2018-07-25T06:22:01.376Z,28.13
2018-07-25T06:23:01.389Z,28.13
2018-07-25T06:24:01.406Z,28.13
2018-07-25T06:25:01.435Z,28.13
2018-07-25T06:26:01.511Z,28.13
2018-07-25T06:27:01.452Z,28.13
2018-07-25T06:28:01.462Z,28.13
2018-07-25T06:29:01.494Z,28.13
2018-07-25T06:30:01.495Z,28.13
2018-07-25T06:31:01.512Z,28.13
2018-07-25T06:32:01.526Z,28.13
2018-07-25T06:33:01.528Z,28.13
2018-07-25T06:34:01.544Z,28.13
2018-07-25T06:35:01.556Z,28.13
2018-07-25T06:36:01.565Z,28.13
2018-07-25T06:37:01.595Z,28.13
2018-07-25T06:38:01.611Z,28.13
2018-07-25T06:39:01.593Z,28.13
2018-07-25T06:40:01.613Z,28.13
2018-07-25T06:41:01.620Z,28.13
2018-07-25T06:42:01.634Z,28.13
2018-07-25T06:43:01.640Z,28.13
2018-07-25T06:44:01.655Z,28.13
2018-07-25T06:45:01.659Z,28.13
2018-07-25T06:46:01.673Z,28.13
2018-07-25T06:47:01.682Z,28.13
2018-07-25T06:48:01.686Z,28.13
2018-07-25T06:49:01.721Z,28.13
2018-07-25T06:50:01.712Z,28.13
2018-07-25T06:51:01.717Z,28.13
2018-07-25T06:52:01.725Z,28.13
2018-07-25T06:53:01.740Z,28.13
2018-07-25T06:54:01.748Z,28.13
2018-07-25T06:55:01.755Z,28.13
2018-07-25T06:56:01.768Z,28.13
2018-07-25T06:57:01.773Z,28.13
2018-07-25T06:58:01.785Z,28.13
2018-07-25T06:59:01.796Z,28.13
2018-07-25T07:00:01.808Z,28.13
2018-07-25T07:01:01.808Z,28.13
2018-07-25T07:02:01.824Z,28.13
2018-07-25T07:03:01.870Z,28.13
2018-07-25T07:04:01.839Z,28.13
2018-07-25T07:05:01.864Z,28.13
2018-07-25T07:06:01.859Z,28.13
2018-07-25T07:07:01.881Z,28.13
2018-07-25T07:08:01.878Z,28.13
2018-07-25T07:09:01.888Z,28.13
2018-07-25T07:10:01.893Z,28.13
2018-07-25T07:11:01.902Z,28.13
2018-07-25T07:12:01.926Z,28.13
2018-07-25T07:13:01.921Z,28.13
2018-07-25T07:14:01.930Z,28.13
2018-07-25T07:15:01.941Z,28.13
2018-07-25T07:16:01.950Z,28.13
2018-07-25T07:17:01.958Z,28.13
2018-07-25T07:18:01.971Z,28.13
2018-07-25T07:19:01.981Z,28.13
2018-07-25T07:20:02.004Z,28.13
2018-07-25T07:21:01.995Z,28.13
2018-07-25T07:22:02.007Z,28.13
2018-07-25T07:23:02.010Z,28.13
2018-07-25T07:24:02.049Z,22.50
2018-07-25T07:25:02.025Z,22.50
2018-07-25T07:26:02.032Z,22.50
2018-07-25T07:27:02.046Z,22.50
2018-07-25T07:28:02.057Z,22.50
2018-07-25T07:29:02.067Z,22.50
2018-07-25T07:30:02.071Z,22.50
2018-07-25T07:31:02.074Z,22.50
2018-07-25T07:32:02.089Z,22.50
2018-07-25T07:33:02.095Z,22.50
2018-07-25T07:34:02.106Z,22.50
2018-07-25T07:35:02.162Z,22.50
2018-07-25T07:36:02.134Z,22.50
2018-07-25T07:37:02.143Z,22.50
2018-07-25T07:39:52.341Z,22.50
2018-07-25T07:40:42.896Z,22.50
2018-07-25T07:42:27.707Z,22.50
2018-07-25T07:43:27.682Z,22.50
2018-07-25T07:44:27.696Z,22.50
2018-07-25T07:45:27.706Z,22.50
2018-07-25T07:46:37.244Z,22.50
2018-07-25T07:48:21.155Z,22.50
2018-07-25T07:49:21.131Z,22.50
2018-07-25T07:50:21.136Z,22.50
2018-07-25T07:51:21.141Z,22.50
2018-07-25T07:52:21.147Z,22.50
2018-07-25T07:53:21.166Z,22.50
2018-07-25T07:54:21.167Z,22.50
2018-07-25T07:55:21.179Z,22.50
2018-07-25T07:56:21.187Z,22.50
2018-07-25T07:57:21.194Z,22.50
2018-07-25T07:58:21.201Z,22.50
2018-07-25T07:59:21.270Z,22.50
2018-07-25T08:00:21.220Z,22.50
2018-07-25T08:01:21.228Z,22.50
2018-07-25T08:02:21.239Z,22.50
2018-07-25T08:03:21.271Z,22.50
2018-07-25T08:04:21.255Z,22.50
2018-07-25T08:05:21.263Z,22.50
2018-07-25T08:06:21.277Z,22.50
2018-07-25T08:07:21.279Z,22.50
2018-07-25T08:08:21.294Z,22.50
2018-07-25T08:09:21.300Z,22.50
2018-07-25T08:10:21.314Z,22.50
2018-07-25T08:11:21.332Z,22.50
2018-07-25T08:12:21.333Z,22.50
2018-07-25T08:13:21.338Z,22.50
2018-07-25T08:14:21.339Z,22.50
2018-07-25T08:15:21.351Z,22.50
2018-07-25T08:16:21.357Z,22.50
2018-07-25T08:17:21.362Z,22.50
2018-07-25T08:18:21.377Z,22.50
2018-07-25T08:19:21.380Z,22.50
2018-07-25T08:20:21.389Z,22.50
2018-07-25T08:21:21.394Z,22.50
2018-07-25T08:22:21.404Z,22.50
2018-07-25T08:23:21.424Z,22.50
2018-07-25T08:24:21.428Z,22.50
2018-07-25T08:25:21.449Z,22.50
2018-07-25T08:26:21.441Z,22.50
2018-07-25T08:27:21.466Z,22.50
2018-07-25T08:28:21.488Z,22.50
2018-07-25T08:29:21.486Z,22.50
2018-07-25T08:30:21.480Z,22.50
2018-07-25T08:31:21.493Z,22.50
2018-07-25T08:32:21.505Z,22.50
2018-07-25T08:33:21.499Z,22.50
2018-07-25T08:34:21.554Z,22.50
2018-07-25T08:35:21.523Z,22.50
2018-07-25T08:36:21.546Z,16.88
2018-07-25T08:37:21.534Z,16.88
2018-07-25T08:38:21.562Z,16.88
2018-07-25T08:39:21.569Z,16.88
2018-07-25T08:40:21.604Z,16.88
2018-07-25T08:41:21.644Z,16.88
2018-07-25T08:42:21.607Z,16.88
2018-07-25T08:43:21.589Z,16.88
2018-07-25T08:44:21.591Z,16.88
2018-07-25T08:45:21.606Z,16.88
2018-07-25T08:46:21.610Z,16.88
2018-07-25T08:47:21.647Z,16.88
2018-07-25T08:48:21.630Z,16.88
2018-07-25T08:49:21.679Z,16.88
2018-07-25T08:50:21.650Z,16.88
2018-07-25T08:51:22.647Z,16.88
2018-07-25T08:52:21.662Z,16.88
2018-07-25T08:53:21.674Z,16.88
2018-07-25T08:54:21.680Z,16.88
2018-07-25T08:55:21.696Z,16.88
2018-07-25T08:56:21.722Z,16.88
2018-07-25T08:57:21.703Z,16.88
2018-07-25T08:58:21.716Z,16.88
2018-07-25T08:59:21.726Z,16.88
2018-07-25T09:00:21.734Z,16.88
2018-07-25T09:01:21.740Z,16.88
2018-07-25T09:02:21.753Z,16.88
2018-07-25T09:03:21.867Z,16.88
2018-07-25T09:04:21.768Z,16.88
2018-07-25T09:05:21.770Z,16.88
2018-07-25T09:06:21.795Z,16.88
2018-07-25T09:07:21.821Z,16.88
2018-07-25T09:08:21.805Z,16.88
2018-07-25T09:09:21.811Z,16.88
2018-07-25T09:10:21.813Z,16.88
2018-07-25T09:11:21.997Z,16.88
2018-07-25T09:12:21.846Z,16.88
2018-07-25T09:13:21.853Z,16.88
2018-07-25T09:14:21.926Z,16.88
2018-07-25T09:15:21.874Z,16.88
2018-07-25T09:16:21.868Z,16.88
2018-07-25T09:17:21.877Z,16.88
2018-07-25T09:18:21.894Z,16.88
2018-07-25T09:19:21.894Z,16.88
2018-07-25T09:20:21.907Z,16.88
2018-07-25T09:21:21.914Z,16.88
2018-07-25T09:22:21.959Z,16.88
2018-07-25T09:23:21.956Z,16.88
2018-07-25T09:24:21.988Z,16.88
2018-07-25T09:25:22.020Z,16.88
2018-07-25T09:26:21.969Z,16.88
2018-07-25T09:27:22.020Z,16.88
2018-07-25T09:28:22.022Z,16.88
2018-07-25T09:29:22.056Z,16.88
2018-07-25T09:30:22.004Z,16.88
2018-07-25T09:31:22.007Z,16.88
2018-07-25T09:32:22.010Z,16.88
2018-07-25T09:33:22.016Z,16.88
2018-07-25T09:34:22.099Z,16.88
2018-07-25T09:35:22.037Z,16.88
2018-07-25T09:36:22.053Z,16.88
2018-07-25T09:37:22.058Z,16.88
2018-07-25T09:38:22.079Z,16.88
2018-07-25T09:39:22.071Z,16.88
2018-07-25T09:40:22.091Z,16.88
2018-07-25T09:41:22.090Z,16.88
2018-07-25T09:42:22.099Z,16.88
2018-07-25T09:43:22.114Z,16.88
2018-07-25T09:44:22.124Z,16.88
2018-07-25T09:45:22.130Z,16.88
2018-07-25T09:46:22.140Z,16.88
2018-07-25T09:47:22.157Z,16.88
2018-07-25T09:48:22.165Z,16.88
2018-07-25T09:49:22.155Z,16.88
2018-07-25T09:50:22.182Z,16.88
2018-07-25T09:51:22.181Z,16.88
2018-07-25T09:52:22.184Z,16.88
2018-07-25T09:53:22.216Z,16.88
2018-07-25T09:54:22.233Z,16.88
2018-07-25T09:55:22.214Z,16.88
2018-07-25T09:56:22.240Z,11.25
2018-07-25T09:57:22.246Z,11.25
2018-07-25T09:58:22.242Z,11.25
2018-07-25T09:59:22.275Z,11.25
2018-07-25T10:00:22.257Z,11.25
2018-07-25T10:01:22.282Z,11.25
2018-07-25T10:02:22.312Z,11.25
2018-07-25T10:03:22.292Z,11.25
2018-07-25T10:04:22.301Z,11.25
2018-07-25T10:05:22.310Z,11.25
2018-07-25T10:06:22.403Z,11.25
2018-07-25T10:07:22.346Z,11.25
2018-07-25T10:08:22.341Z,11.25
2018-07-25T10:09:22.346Z,11.25
2018-07-25T10:10:22.356Z,11.25
2018-07-25T10:11:22.367Z,11.25
2018-07-25T10:12:22.371Z,11.25
2018-07-25T10:13:22.383Z,11.25
2018-07-25T10:14:22.391Z,11.25
2018-07-25T10:15:22.414Z,11.25
2018-07-25T10:16:22.412Z,11.25
2018-07-25T10:17:22.424Z,11.25
2018-07-25T10:18:22.452Z,11.25
2018-07-25T10:19:22.440Z,11.25
2018-07-25T10:20:22.451Z,11.25
2018-07-25T10:21:22.539Z,11.25
2018-07-25T10:22:22.469Z,11.25
2018-07-25T10:23:22.478Z,11.25
2018-07-25T10:24:22.572Z,11.25
2018-07-25T10:25:22.514Z,11.25
2018-07-25T10:26:22.571Z,11.25
2018-07-25T10:27:22.617Z,11.25
2018-07-25T10:28:22.643Z,11.25
2018-07-25T10:29:22.683Z,11.25
2018-07-25T10:30:22.954Z,11.25
2018-07-25T10:31:22.554Z,11.25
2018-07-25T10:32:22.564Z,11.25
2018-07-25T10:33:22.574Z,11.25
2018-07-25T10:34:22.582Z,11.25
2018-07-25T10:35:22.600Z,11.25
2018-07-25T10:36:22.602Z,11.25
2018-07-25T10:37:22.607Z,11.25
2018-07-25T10:38:22.618Z,11.25
2018-07-25T10:39:22.632Z,11.25
2018-07-25T10:40:22.640Z,11.25
2018-07-25T10:41:22.646Z,11.25
2018-07-25T10:42:22.659Z,11.25
2018-07-25T10:43:22.674Z,11.25
2018-07-25T10:44:22.688Z,11.25
2018-07-25T10:45:22.704Z,11.25
2018-07-25T10:46:22.698Z,11.25
2018-07-25T10:47:22.704Z,11.25
2018-07-25T10:48:22.713Z,11.25
2018-07-25T10:49:22.728Z,11.25
2018-07-25T10:50:22.738Z,11.25
2018-07-25T10:51:22.758Z,11.25
2018-07-25T10:52:22.754Z,11.25
2018-07-25T10:53:22.763Z,11.25
2018-07-25T10:54:22.777Z,11.25
2018-07-25T10:55:22.786Z,11.25
2018-07-25T10:56:22.791Z,11.25
2018-07-25T10:57:22.804Z,11.25
2018-07-25T10:58:22.812Z,11.25
2018-07-25T10:59:22.825Z,11.25
2018-07-25T11:00:22.829Z,11.25
2018-07-25T11:01:22.843Z,11.25
2018-07-25T11:02:22.847Z,11.25
2018-07-25T11:03:22.867Z,11.25
2018-07-25T11:04:22.868Z,11.25
2018-07-25T11:05:22.878Z,11.25
2018-07-25T11:06:22.896Z,11.25
2018-07-25T11:07:22.898Z,11.25
2018-07-25T11:08:22.905Z,11.25
2018-07-25T11:09:22.915Z,11.25
2018-07-25T11:10:22.929Z,11.25
2018-07-25T11:11:22.941Z,11.25
2018-07-25T11:12:22.949Z,11.25
2018-07-25T11:13:22.953Z,11.25
2018-07-25T11:14:22.967Z,11.25
2018-07-25T11:15:22.982Z,11.25
2018-07-25T11:16:23.251Z,11.25
2018-07-25T11:17:22.999Z,11.25
2018-07-25T11:18:23.008Z,11.25
2018-07-25T11:19:23.013Z,11.25
2018-07-25T11:20:23.036Z,11.25
2018-07-25T11:21:23.044Z,11.25
2018-07-25T11:22:23.044Z,11.25
2018-07-25T11:23:23.055Z,11.25
2018-07-25T11:24:23.070Z,11.25
2018-07-25T11:25:23.072Z,11.25
2018-07-25T11:26:23.085Z,11.25
2018-07-25T11:27:23.090Z,11.25
2018-07-25T11:28:23.103Z,11.25
2018-07-25T11:29:23.117Z,11.25
2018-07-25T11:30:23.129Z,11.25
2018-07-25T11:31:23.129Z,11.25
2018-07-25T11:32:23.146Z,11.25
2018-07-25T11:33:23.158Z,11.25
2018-07-25T11:34:23.160Z,11.25
2018-07-25T11:35:23.171Z,11.25
2018-07-25T11:36:23.184Z,11.25
2018-07-25T11:37:23.236Z,11.25
2018-07-25T11:38:23.214Z,11.25
2018-07-25T11:39:23.220Z,11.25
2018-07-25T11:40:23.223Z,11.25
2018-07-25T11:41:23.230Z,11.25
2018-07-25T11:42:23.242Z,11.25
2018-07-25T11:43:23.259Z,11.25
2018-07-25T11:44:23.255Z,11.25
2018-07-25T11:45:23.268Z,11.25
2018-07-25T11:46:23.300Z,11.25
2018-07-25T11:47:23.289Z,11.25
2018-07-25T11:48:23.301Z,11.25
2018-07-25T11:49:23.309Z,11.25
2018-07-25T11:50:23.379Z,11.25
2018-07-25T11:51:23.330Z,11.25
2018-07-25T11:52:23.341Z,11.25
2018-07-25T11:53:23.353Z,11.25
2018-07-25T11:54:23.362Z,11.25
2018-07-25T11:55:23.386Z,11.25
2018-07-25T11:56:23.381Z,11.25
2018-07-25T11:57:23.392Z,11.25
2018-07-25T11:58:23.403Z,11.25
2018-07-25T11:59:23.412Z,11.25
2018-07-25T12:00:23.422Z,11.25
2018-07-25T12:01:23.492Z,11.25
2018-07-25T12:02:23.442Z,11.25
2018-07-25T12:03:23.453Z,11.25
2018-07-25T12:04:23.461Z,11.25
2018-07-25T12:05:23.470Z,11.25
2018-07-25T12:06:23.480Z,11.25
2018-07-25T12:07:23.506Z,11.25
2018-07-25T12:08:23.531Z,11.25
2018-07-25T12:09:23.514Z,11.25
2018-07-25T12:10:23.527Z,11.25
2018-07-25T12:11:23.526Z,11.25
2018-07-25T12:12:23.553Z,11.25
2018-07-25T12:13:23.548Z,11.25
2018-07-25T12:14:23.561Z,11.25
2018-07-25T12:15:23.572Z,11.25
2018-07-25T12:16:23.590Z,11.25
2018-07-25T12:17:23.589Z,11.25
2018-07-25T12:18:23.608Z,11.25
2018-07-25T12:19:23.621Z,11.25
2018-07-25T12:20:23.629Z,11.25
2018-07-25T12:21:23.638Z,11.25
2018-07-25T12:22:23.659Z,11.25
2018-07-25T12:23:23.657Z,11.25
2018-07-25T12:24:23.663Z,11.25
2018-07-25T12:25:23.670Z,11.25
2018-07-25T12:26:23.691Z,11.25
2018-07-25T12:27:23.694Z,11.25
2018-07-25T12:28:23.708Z,11.25
2018-07-25T12:29:23.719Z,11.25
2018-07-25T12:30:23.724Z,11.25
2018-07-25T12:31:23.735Z,11.25
2018-07-25T12:32:23.749Z,11.25
2018-07-25T12:33:23.755Z,11.25
2018-07-25T12:35:23.782Z,11.25
2018-07-25T12:36:23.796Z,11.25
2018-07-25T12:37:23.809Z,11.25
2018-07-25T12:38:23.808Z,11.25
2018-07-25T12:39:23.820Z,11.25
2018-07-25T12:40:23.829Z,11.25
2018-07-25T12:41:23.856Z,11.25
2018-07-25T12:42:23.855Z,11.25
2018-07-25T12:43:23.860Z,11.25
2018-07-25T12:44:23.879Z,11.25
2018-07-25T12:45:23.879Z,11.25
2018-07-25T12:46:23.891Z,11.25
2018-07-25T12:47:23.902Z,11.25
2018-07-25T12:48:23.951Z,11.25
2018-07-25T12:49:23.938Z,11.25
2018-07-25T12:50:23.939Z,11.25
2018-07-25T12:51:23.938Z,11.25
2018-07-25T12:52:23.962Z,11.25
2018-07-25T12:53:23.963Z,11.25
2018-07-25T12:54:23.979Z,11.25
2018-07-25T12:55:23.997Z,11.25
2018-07-25T12:56:24.009Z,11.25
2018-07-25T12:57:24.021Z,11.25
2018-07-25T12:58:24.019Z,11.25
2018-07-25T12:59:24.031Z,11.25
2018-07-25T13:00:24.043Z,11.25
2018-07-25T13:02:45.149Z,11.25
2018-07-25T13:03:45.095Z,11.25
2018-07-25T13:04:45.106Z,11.25
2018-07-25T13:05:45.132Z,11.25
2018-07-25T13:06:45.124Z,11.25
2018-07-25T13:07:45.142Z,11.25
2018-07-25T13:08:45.142Z,11.25
2018-07-25T13:09:45.169Z,11.25
2018-07-25T13:10:45.168Z,11.25
2018-07-25T13:11:45.200Z,11.25
2018-07-25T13:12:45.205Z,11.25
2018-07-25T13:13:45.216Z,11.25
2018-07-25T13:14:45.220Z,11.25
2018-07-25T13:15:45.308Z,11.25
2018-07-25T13:16:45.315Z,11.25
2018-07-25T13:17:45.263Z,11.25
2018-07-25T13:18:45.943Z,11.25
2018-07-25T13:19:45.263Z,11.25
2018-07-25T13:20:45.276Z,11.25
2018-07-25T13:21:45.279Z,11.25
2018-07-25T13:22:45.351Z,11.25
2018-07-25T13:23:45.308Z,11.25
2018-07-25T13:24:45.318Z,11.25
2018-07-25T13:25:45.329Z,11.25
2018-07-25T13:26:45.338Z,11.25
2018-07-25T13:27:45.350Z,11.25
2018-07-25T13:28:45.386Z,11.25
2018-07-25T13:29:45.371Z,11.25
2018-07-25T13:30:45.379Z,11.25